Time;durP1;ratioP1;P1;durP2;ratioP2;P2;SDS_P1;SDS_P2;PMS_P1;PMS_P2;Temp;Humidity;BMP_temperature;BMP_pressure;BME280_temperature;BME280_humidity;BME280_pressure;Samples;Min_cycle;Max_cycle;Signal;HPM_P1;HPM_P2
2022/12/24 00:01:12;;;;;;;3.13;2.10;;;;;;;17.02;52.83;98205.22;7086516;27;20352;-79
2022/12/24 00:04:33;;;;;;;2.53;1.80;;;;;;;16.20;54.11;98203.88;7086869;27;20282;-79
2022/12/24 00:07:55;;;;;;;5.07;2.17;;;;;;;16.62;53.61;98221.19;7086388;27;20415;-79
2022/12/24 00:11:17;;;;;;;5.50;1.50;;;;;;;16.82;52.89;98221.41;7114667;27;20301;-79
2022/12/24 00:14:38;;;;;;;3.93;1.90;;;;;;;16.58;52.59;98201.03;7115825;27;20208;-79
2022/12/24 00:18:01;;;;;;;3.57;1.83;;;;;;;16.60;53.95;98221.47;7120939;27;20242;-79
2022/12/24 00:21:23;;;;;;;3.00;2.00;;;;;;;16.24;55.21;98211.28;7116390;27;20371;-79
2022/12/24 00:24:44;;;;;;;4.23;2.00;;;;;;;16.05;55.57;98209.94;7113010;27;20619;-79
2022/12/24 00:28:06;;;;;;;2.93;1.83;;;;;;;16.01;55.93;98232.47;7110345;27;20709;-79
2022/12/24 00:31:27;;;;;;;4.17;2.10;;;;;;;16.23;54.65;98206.88;7113476;27;20263;-79
2022/12/24 00:34:50;;;;;;;3.60;1.90;;;;;;;16.09;54.10;98213.81;7087658;27;20338;-79
2022/12/24 00:38:12;;;;;;;6.00;2.23;;;;;;;16.43;53.66;98233.53;7085928;27;20295;-79
2022/12/24 00:41:33;;;;;;;3.07;1.87;;;;;;;16.49;52.86;98241.50;7086289;27;20358;-79
2022/12/24 00:44:55;;;;;;;4.13;2.07;;;;;;;16.50;52.70;98229.53;7085353;28;20390;-79
2022/12/24 00:48:16;;;;;;;5.17;2.30;;;;;;;16.52;52.18;98237.44;7100961;27;20678;-79
2022/12/24 00:51:39;;;;;;;3.67;1.90;;;;;;;16.56;52.30;98241.28;7113829;27;20306;-79
2022/12/24 00:55:01;;;;;;;5.83;2.13;;;;;;;16.45;52.02;98228.69;7113262;27;20333;-79
2022/12/24 00:58:22;;;;;;;3.53;2.27;;;;;;;16.66;51.69;98249.56;7111202;27;20232;-79
2022/12/24 01:01:44;;;;;;;4.10;2.30;;;;;;;16.41;51.78;98241.97;7116151;27;20228;-79
2022/12/24 01:05:12;;;;;;;3.30;1.97;;;;;;;16.14;52.33;98260.13;7113525;27;20287;-79
2022/12/24 01:08:35;;;;;;;3.33;1.93;;;;;;;16.48;51.91;98275.25;7110137;27;20204;-79
2022/12/24 01:11:56;;;;;;;4.30;2.00;;;;;;;16.35;51.74;98259.25;7113690;27;20839;-79
2022/12/24 01:15:18;;;;;;;4.67;2.23;;;;;;;16.39;51.75;98273.22;7114365;27;20276;-79
2022/12/24 01:18:39;;;;;;;5.13;2.00;;;;;;;16.25;52.30;98278.19;7095124;27;20208;-79
2022/12/24 01:22:01;;;;;;;8.87;2.63;;;;;;;16.46;51.89;98287.47;7118459;27;20711;-79
2022/12/24 01:25:24;;;;;;;6.57;2.67;;;;;;;16.79;51.87;98309.03;7120924;27;20610;-79
2022/12/24 01:28:45;;;;;;;4.90;2.00;;;;;;;16.83;52.19;98304.72;7121117;27;20273;-79
2022/12/24 01:32:07;;;;;;;3.87;2.10;;;;;;;16.70;52.69;98316.03;7117999;27;20290;-79
2022/12/24 01:35:28;;;;;;;7.90;2.50;;;;;;;16.63;53.67;98337.19;7119755;27;20286;-80
2022/12/24 01:38:50;;;;;;;3.57;2.27;;;;;;;16.67;53.96;98332.84;7117762;27;20223;-80
2022/12/24 01:46:00;;;;;;;4.47;2.77;;;;;;;16.00;54.94;98326.84;7118056;27;20180;-79
2022/12/24 01:49:21;;;;;;;8.87;2.40;;;;;;;15.97;55.97;98359.13;7091431;27;20767;-79
2022/12/24 01:52:43;;;;;;;6.83;2.67;;;;;;;15.82;57.28;98375.22;7091879;27;20651;-79
2022/12/24 01:56:05;;;;;;;6.37;2.57;;;;;;;15.75;58.51;98399.84;7090776;27;20205;-79
2022/12/24 01:59:28;;;;;;;6.43;2.30;;;;;;;15.91;58.68;98417.22;7116666;27;20638;-79
2022/12/24 02:02:52;;;;;;;6.13;2.80;;;;;;;16.00;58.94;98410.28;7114445;27;20284;-79
2022/12/24 02:06:15;;;;;;;7.77;2.70;;;;;;;15.68;59.68;98406.53;7117443;27;20207;-79
2022/12/24 02:09:37;;;;;;;8.50;2.67;;;;;;;15.18;60.20;98401.03;7107442;27;20242;-78
2022/12/24 02:12:59;;;;;;;8.40;2.60;;;;;;;15.32;61.06;98417.81;7117843;27;20196;-79
2022/12/24 02:16:33;;;;;;;8.03;2.60;;;;;;;15.36;60.80;98422.56;7115455;27;20290;-79
2022/12/24 02:20:19;;;;;;;8.33;3.30;;;;;;;15.61;60.64;98439.28;7094112;27;20718;-79
2022/12/24 02:24:02;;;;;;;7.90;2.87;;;;;;;15.13;61.74;98416.38;7117784;27;20282;-79
2022/12/24 02:27:38;;;;;;;7.17;2.83;;;;;;;14.84;63.27;98422.88;7081852;27;20207;-77
2022/12/24 02:31:04;;;;;;;9.33;3.33;;;;;;;14.93;63.36;98408.66;7116715;27;20258;-78
2022/12/24 02:34:30;;;;;;;10.70;3.17;;;;;;;15.22;61.82;98409.50;7117056;27;20252;-78
2022/12/24 02:37:54;;;;;;;10.73;3.40;;;;;;;15.15;62.08;98423.22;7103461;27;20211;-78
2022/12/24 02:41:18;;;;;;;9.50;2.83;;;;;;;15.36;61.61;98422.56;7088112;27;20226;-79
2022/12/24 02:44:43;;;;;;;11.63;2.80;;;;;;;15.33;61.75;98414.09;7088407;27;20290;-78
2022/12/24 02:48:06;;;;;;;10.40;3.20;;;;;;;14.97;62.11;98422.56;7112321;27;20200;-78
2022/12/24 02:51:28;;;;;;;5.50;3.17;;;;;;;14.97;62.29;98411.72;7117007;27;20362;-78
2022/12/24 02:54:49;;;;;;;8.73;3.00;;;;;;;15.22;61.80;98423.88;7087922;27;20199;-79
2022/12/24 02:58:23;;;;;;;10.40;3.27;;;;;;;15.32;61.38;98442.25;7104801;27;20295;-78
2022/12/24 03:01:50;;;;;;;11.87;3.23;;;;;;;15.56;60.38;98460.94;7102532;27;20238;-78
2022/12/24 03:05:20;;;;;;;8.57;3.50;;;;;;;15.48;60.41;98453.22;7087280;27;20235;-77
2022/12/24 03:08:44;;;;;;;6.33;3.10;;;;;;;15.54;60.27;98459.53;7111584;27;20285;-79
2022/12/24 03:12:09;;;;;;;5.70;3.10;;;;;;;15.28;59.76;98416.66;7108970;27;20223;-78
2022/12/24 03:15:31;;;;;;;12.33;3.00;;;;;;;15.08;61.11;98454.28;7113962;27;20229;-78
2022/12/24 03:18:55;;;;;;;11.67;3.33;;;;;;;15.16;60.77;98467.50;7090440;27;20330;-78
2022/12/24 03:22:18;;;;;;;7.80;3.37;;;;;;;14.96;61.19;98446.19;7087063;27;20260;-78
2022/12/24 03:25:41;;;;;;;9.70;3.50;;;;;;;15.12;61.07;98450.03;7108221;27;20672;-78
2022/12/24 03:29:05;;;;;;;8.03;3.23;;;;;;;15.21;60.71;98468.41;7089572;27;20287;-78
2022/12/24 03:32:29;;;;;;;10.17;3.07;;;;;;;15.18;60.73;98489.81;7087313;27;20206;-79
2022/12/24 03:35:51;;;;;;;9.50;3.10;;;;;;;15.32;60.24;98470.28;7086699;27;20810;-77
2022/12/24 03:39:13;;;;;;;5.90;3.00;;;;;;;15.11;60.40;98432.91;7114561;27;20256;-78
2022/12/24 03:42:35;;;;;;;7.97;2.93;;;;;;;14.75;61.95;98471.28;7114503;27;20267;-79
2022/12/24 03:45:57;;;;;;;8.53;3.30;;;;;;;14.96;60.95;98469.78;7090742;27;20313;-78
2022/12/24 03:49:18;;;;;;;8.80;3.40;;;;;;;15.01;60.65;98483.47;7113433;27;20219;-77
2022/12/24 03:52:40;;;;;;;5.67;2.50;;;;;;;14.84;60.14;98496.16;7115498;27;20239;-78
2022/12/24 03:56:03;;;;;;;8.57;2.80;;;;;;;15.03;59.45;98498.47;7113827;27;20290;-79
2022/12/24 03:59:26;;;;;;;5.13;2.63;;;;;;;14.74;59.74;98482.38;7086531;27;20714;-78
2022/12/24 04:02:48;;;;;;;10.73;3.40;;;;;;;15.03;58.73;98456.91;7089635;27;20231;-79
2022/12/24 04:06:11;;;;;;;10.47;3.47;;;;;;;15.20;58.47;98474.91;7094578;27;20639;-77
2022/12/24 04:09:33;;;;;;;11.10;3.67;;;;;;;15.46;57.13;98478.97;7107118;27;20267;-78
2022/12/24 04:12:56;;;;;;;8.30;3.27;;;;;;;15.50;55.80;98464.66;7114157;27;20731;-78
2022/12/24 04:16:17;;;;;;;8.10;3.13;;;;;;;15.50;56.72;98485.53;7113683;27;20666;-79
2022/12/24 04:19:39;;;;;;;8.43;2.83;;;;;;;15.86;55.69;98496.81;7114249;27;20370;-78
2022/12/24 04:23:00;;;;;;;9.27;2.97;;;;;;;15.27;56.54;98470.16;7110941;27;20227;-79
2022/12/24 04:26:21;;;;;;;6.63;3.30;;;;;;;14.95;59.06;98460.84;7107012;27;20199;-79
2022/12/24 04:29:44;;;;;;;6.80;3.17;;;;;;;15.39;58.26;98494.59;7109255;27;20222;-78
2022/12/24 04:33:06;;;;;;;5.73;3.23;;;;;;;15.38;58.10;98501.06;7104305;27;20317;-78
2022/12/24 04:36:28;;;;;;;5.23;2.53;;;;;;;15.41;58.27;98496.00;7091836;27;20320;-79
2022/12/24 04:39:49;;;;;;;5.67;2.57;;;;;;;15.30;58.42;98485.97;7089645;27;20310;-79
2022/12/24 04:43:11;;;;;;;8.27;3.30;;;;;;;14.69;60.24;98495.84;7089924;27;20315;-79
2022/12/24 04:46:34;;;;;;;7.57;3.00;;;;;;;14.50;61.35;98500.56;7085981;27;20616;-79
2022/12/24 04:49:55;;;;;;;8.47;3.17;;;;;;;14.55;61.52;98513.41;7113083;27;20230;-78
2022/12/24 04:53:17;;;;;;;8.17;3.20;;;;;;;14.55;61.39;98511.53;7104916;27;20271;-79
2022/12/24 04:56:38;;;;;;;14.73;3.60;;;;;;;14.12;63.10;98518.34;7093928;27;20671;-78
2022/12/24 05:00:00;;;;;;;7.43;3.30;;;;;;;14.05;63.15;98510.31;7120231;27;20754;-79
2022/12/24 05:03:23;;;;;;;6.87;2.50;;;;;;;14.71;61.52;98535.25;7116271;27;20303;-79
2022/12/24 05:06:44;;;;;;;6.23;2.60;;;;;;;14.68;60.33;98476.00;7118204;27;20260;-79
2022/12/24 05:10:07;;;;;;;6.30;2.47;;;;;;;15.26;59.45;98511.97;7119315;27;20740;-79
2022/12/24 05:13:29;;;;;;;10.87;3.20;;;;;;;15.06;59.79;98494.44;7106866;27;20668;-78
2022/12/24 05:16:51;;;;;;;8.50;3.03;;;;;;;15.41;59.03;98500.59;7094338;27;20672;-79
2022/12/24 05:20:14;;;;;;;8.63;3.53;;;;;;;15.30;59.04;98518.56;7117332;27;20264;-79
2022/12/24 05:27:16;;;;;;;11.50;2.93;;;;;;;14.23;62.14;98529.22;7117101;27;20234;-78
2022/12/24 05:30:38;;;;;;;13.03;4.40;;;;;;;14.54;61.62;98526.19;7118488;27;20363;-79
2022/12/24 05:33:59;;;;;;;7.33;2.50;;;;;;;14.19;60.68;98527.22;7104076;27;20352;-79
2022/12/24 05:37:22;;;;;;;10.70;2.50;;;;;;;14.31;59.95;98518.03;7092863;27;20280;-79
2022/12/24 05:40:44;;;;;;;8.27;2.70;;;;;;;14.18;60.17;98544.53;7116227;27;20359;-79
2022/12/24 05:44:05;;;;;;;8.33;3.00;;;;;;;14.44;58.92;98531.38;7102270;27;20295;-78
2022/12/24 05:47:27;;;;;;;5.00;2.70;;;;;;;14.84;56.69;98540.41;7088877;27;20203;-79
2022/12/24 05:50:48;;;;;;;11.13;3.03;;;;;;;14.77;56.14;98496.31;7089374;27;20346;-78
2022/12/24 05:54:11;;;;;;;6.63;2.90;;;;;;;15.14;54.92;98502.19;7105420;27;20243;-78
2022/12/24 05:57:33;;;;;;;7.63;2.90;;;;;;;14.82;54.99;98495.56;7106700;27;20727;-78
2022/12/24 06:00:54;;;;;;;6.90;2.57;;;;;;;15.36;53.62;98522.22;7088685;27;20275;-78
2022/12/24 06:04:16;;;;;;;8.00;2.77;;;;;;;15.26;54.25;98530.97;7105992;27;20629;-79
2022/12/24 06:07:37;;;;;;;8.23;2.80;;;;;;;15.24;53.29;98502.41;7101781;27;20292;-78
2022/12/24 06:11:01;;;;;;;8.37;2.60;;;;;;;15.27;53.33;98535.34;7117716;27;20692;-79
2022/12/24 06:14:23;;;;;;;5.63;2.40;;;;;;;14.79;54.72;98550.31;7113499;27;20210;-79
2022/12/24 06:17:44;;;;;;;8.00;2.90;;;;;;;15.42;53.75;98548.44;7117004;27;20229;-79
2022/12/24 06:21:06;;;;;;;8.57;3.20;;;;;;;14.99;53.73;98527.16;7117218;27;20224;-78
2022/12/24 06:24:28;;;;;;;6.33;2.77;;;;;;;15.29;53.27;98549.50;7099329;27;20703;-79
2022/12/24 06:27:51;;;;;;;9.93;3.77;;;;;;;15.43;53.50;98547.38;7109591;27;20251;-78
2022/12/24 06:31:14;;;;;;;4.53;2.70;;;;;;;15.55;52.95;98567.16;7116358;27;20683;-79
2022/12/24 06:34:36;;;;;;;6.87;2.67;;;;;;;15.01;54.44;98570.34;7116631;27;20322;-79
2022/12/24 06:37:57;;;;;;;6.70;2.30;;;;;;;15.46;54.00;98580.31;7115045;27;20208;-78
2022/12/24 06:41:20;;;;;;;8.40;2.60;;;;;;;15.00;55.06;98544.28;7116158;27;20226;-79
2022/12/24 06:44:43;;;;;;;9.90;3.10;;;;;;;15.31;54.47;98573.72;7115890;27;20231;-79
2022/12/24 06:48:06;;;;;;;7.90;2.80;;;;;;;15.63;53.88;98589.34;7112889;27;20200;-78
2022/12/24 06:51:27;;;;;;;6.33;2.80;;;;;;;15.11;55.24;98584.97;7114708;27;20230;-79
2022/12/24 06:54:49;;;;;;;7.93;2.90;;;;;;;15.18;55.27;98603.84;7116445;27;20287;-79
2022/12/24 06:58:10;;;;;;;8.93;2.87;;;;;;;15.24;55.20;98602.91;7116616;27;20214;-79
2022/12/24 07:01:33;;;;;;;13.50;3.20;;;;;;;14.43;57.64;98604.81;7117608;27;20313;-79
2022/12/24 07:04:55;;;;;;;5.40;3.03;;;;;;;14.68;57.18;98619.81;7116997;27;20407;-79
2022/12/24 07:08:16;;;;;;;8.23;3.00;;;;;;;14.00;59.42;98624.06;7095180;27;20675;-78
2022/12/24 07:11:38;;;;;;;7.37;3.27;;;;;;;14.23;58.99;98617.91;7093618;27;20281;-78
2022/12/24 07:14:59;;;;;;;7.30;3.00;;;;;;;14.31;58.09;98615.66;7096810;27;20220;-77
2022/12/24 07:18:22;;;;;;;6.03;3.20;;;;;;;14.58;57.89;98611.44;7116005;27;20205;-76
2022/12/24 07:21:44;;;;;;;12.30;3.70;;;;;;;14.54;58.07;98625.72;7092690;27;20297;-79
2022/12/24 07:25:06;;;;;;;6.93;3.20;;;;;;;14.44;58.61;98629.00;7115052;27;20332;-77
2022/12/24 07:28:28;;;;;;;10.50;3.07;;;;;;;14.57;57.57;98620.66;7116484;27;20350;-79
2022/12/24 07:31:49;;;;;;;4.90;2.63;;;;;;;14.91;56.31;98638.84;7099020;27;20215;-81
2022/12/24 07:35:12;;;;;;;7.97;2.83;;;;;;;15.08;56.00;98642.47;7116748;27;20768;-80
2022/12/24 07:38:34;;;;;;;10.83;4.67;;;;;;;15.08;55.54;98650.63;7117264;27;20313;-79
2022/12/24 07:41:56;;;;;;;11.53;4.03;;;;;;;15.04;55.03;98646.72;7115869;27;20283;-79
2022/12/24 07:45:18;;;;;;;11.93;3.30;;;;;;;15.33;54.52;98662.09;7116181;27;20244;-80
2022/12/24 07:48:39;;;;;;;8.40;3.33;;;;;;;15.39;54.67;98657.59;7112563;27;20915;-81
2022/12/24 07:52:02;;;;;;;12.03;3.47;;;;;;;15.51;54.10;98656.50;7111949;27;20766;-79
2022/12/24 07:55:24;;;;;;;8.10;3.33;;;;;;;15.40;53.88;98667.41;7100888;27;20297;-79
2022/12/24 07:58:45;;;;;;;8.73;3.07;;;;;;;15.32;53.89;98649.56;7116452;27;20203;-80
2022/12/24 08:02:09;;;;;;;10.93;3.53;;;;;;;15.63;52.91;98668.16;7115757;27;20348;-79
2022/12/24 08:05:33;;;;;;;6.20;2.80;;;;;;;15.46;53.03;98656.38;7101424;27;20220;-78
2022/12/24 08:08:56;;;;;;;8.10;3.27;;;;;;;15.48;54.04;98665.13;7115807;27;20339;-78
2022/12/24 08:12:18;;;;;;;8.83;3.40;;;;;;;15.40;54.00;98676.34;7097736;27;20228;-77
2022/12/24 08:15:39;;;;;;;9.47;3.93;;;;;;;14.93;54.26;98639.41;7086510;27;20290;-78
2022/12/24 08:19:01;;;;;;;5.43;3.00;;;;;;;15.23;54.91;98686.25;7114810;27;20668;-77
2022/12/24 08:22:22;;;;;;;5.90;3.00;;;;;;;15.33;54.73;98670.22;7115761;27;20258;-78
2022/12/24 08:25:47;;;;;;;10.63;3.47;;;;;;;15.30;55.01;98680.72;7114828;27;20335;-79
2022/12/24 08:29:08;;;;;;;5.20;2.67;;;;;;;15.38;54.26;98661.34;7109136;27;20326;-80
2022/12/24 08:32:30;;;;;;;9.60;3.13;;;;;;;15.13;55.00;98690.66;7115436;27;20588;-79
2022/12/24 08:35:52;;;;;;;5.43;3.03;;;;;;;15.23;54.92;98713.44;7105526;27;20235;-79
2022/12/24 08:39:14;;;;;;;7.80;3.63;;;;;;;15.60;55.06;98703.97;7086678;27;20759;-77
2022/12/24 08:42:37;;;;;;;8.73;4.07;;;;;;;15.89;53.77;98693.97;7087134;27;20245;-78
2022/12/24 08:46:02;;;;;;;9.23;3.33;;;;;;;15.80;54.51;98722.63;7114024;27;20231;-78
2022/12/24 08:49:23;;;;;;;6.90;3.30;;;;;;;15.78;53.85;98697.53;7114469;27;20225;-78
2022/12/24 08:52:45;;;;;;;10.90;3.20;;;;;;;15.92;53.97;98724.22;7114860;27;20259;-77
2022/12/24 08:56:08;;;;;;;4.90;3.13;;;;;;;15.48;54.16;98713.22;7113773;27;20206;-77
2022/12/24 08:59:31;;;;;;;9.43;3.47;;;;;;;15.32;55.18;98733.78;7114702;27;20340;-79
2022/12/24 09:02:52;;;;;;;8.63;3.37;;;;;;;15.18;54.69;98729.63;7114397;27;20227;-79
2022/12/24 09:06:14;;;;;;;10.07;3.60;;;;;;;15.36;54.55;98742.28;7113911;27;20271;-78
2022/12/24 09:09:36;;;;;;;9.90;3.53;;;;;;;15.24;54.53;98730.56;7113906;27;20267;-77
2022/12/24 09:12:58;;;;;;;7.87;2.97;;;;;;;15.26;54.39;98717.56;7114430;27;20286;-79
2022/12/24 09:16:21;;;;;;;11.33;3.40;;;;;;;15.19;55.20;98755.72;7113603;27;20195;-76
2022/12/24 09:19:42;;;;;;;9.87;4.20;;;;;;;14.98;55.04;98720.97;7114164;27;20251;-77
2022/12/24 09:23:04;;;;;;;8.37;3.03;;;;;;;15.16;53.82;98739.88;7114063;27;20239;-77
2022/12/24 09:26:28;;;;;;;6.87;2.80;;;;;;;15.39;52.34;98745.34;7114112;27;20287;-77
2022/12/24 09:29:50;;;;;;;7.80;3.40;;;;;;;15.65;51.52;98769.31;7094409;27;20243;-77
2022/12/24 09:33:12;;;;;;;9.23;3.10;;;;;;;15.61;51.91;98754.56;7084106;27;20259;-77
2022/12/24 09:36:34;;;;;;;9.40;3.23;;;;;;;15.78;51.18;98746.47;7085005;28;20269;-77
2022/12/24 09:39:56;;;;;;;10.10;3.43;;;;;;;15.90;52.39;98769.03;7085420;27;20310;-77
2022/12/24 09:43:19;;;;;;;11.20;3.57;;;;;;;15.81;51.30;98759.59;7090519;27;20314;-77
2022/12/24 09:46:44;;;;;;;14.43;3.67;;;;;;;16.04;50.79;98770.44;7090011;27;20224;-76
2022/12/24 09:50:23;;;;;;;10.30;3.70;;;;;;;16.82;49.87;98769.50;7089959;27;20731;-77
2022/12/24 09:53:48;;;;;;;9.87;2.90;;;;;;;16.53;49.07;98759.75;7090472;27;20312;-76
2022/12/24 09:57:17;;;;;;;9.17;3.00;;;;;;;16.56;49.58;98764.69;7089359;27;20247;-75
2022/12/24 10:00:38;;;;;;;13.33;3.87;;;;;;;16.45;48.25;98746.53;7112234;27;20272;-75
2022/12/24 10:04:03;;;;;;;10.23;3.27;;;;;;;16.62;48.68;98752.00;7118982;27;20393;-76
2022/12/24 10:07:32;;;;;;;9.40;3.50;;;;;;;17.50;47.77;98744.75;7118674;27;20295;-78
2022/12/24 10:10:55;;;;;;;10.80;2.83;;;;;;;17.68;46.88;98760.88;7118516;27;20694;-77
2022/12/24 10:14:26;;;;;;;10.83;3.10;;;;;;;17.51;46.76;98736.34;7118073;27;20287;-76
2022/12/24 10:18:00;;;;;;;13.90;3.53;;;;;;;18.12;45.96;98754.34;7117038;27;20197;-76
2022/12/24 10:21:29;;;;;;;10.27;3.27;;;;;;;18.00;45.33;98745.47;7117287;27;20233;-77
2022/12/24 10:24:57;;;;;;;10.73;5.50;;;;;;;18.23;45.24;98746.00;7115843;27;20699;-79
2022/12/24 10:28:21;;;;;;;11.57;3.67;;;;;;;18.67;44.75;98769.47;7117835;27;20286;-77
2022/12/24 10:31:55;;;;;;;5.43;2.47;;;;;;;19.50;43.10;98761.47;7117721;27;20701;-76
2022/12/24 10:35:20;;;;;;;7.33;2.80;;;;;;;18.76;44.18;98751.53;7117353;27;20214;-76
2022/12/24 10:38:42;;;;;;;11.77;3.23;;;;;;;18.84;43.82;98761.16;7117777;27;20681;-77
2022/12/24 10:42:05;;;;;;;9.47;3.33;;;;;;;18.50;44.01;98774.22;7117932;27;20273;-77
2022/12/24 10:45:38;;;;;;;9.47;2.70;;;;;;;18.02;44.46;98768.69;7111857;27;20573;-76
2022/12/24 10:49:02;;;;;;;8.50;2.70;;;;;;;17.81;46.13;98774.94;7109874;27;20315;-78
2022/12/24 10:52:27;;;;;;;8.30;2.87;;;;;;;18.09;45.45;98765.75;7100030;27;20225;-78
2022/12/24 10:55:49;;;;;;;11.63;3.23;;;;;;;17.75;45.82;98769.69;7110852;27;20285;-78
2022/12/24 10:59:25;;;;;;;7.23;2.80;;;;;;;17.40;45.92;98769.97;7113450;27;20291;-78
2022/12/24 11:02:47;;;;;;;9.13;3.00;;;;;;;17.26;47.28;98775.97;7088732;27;20769;-78
2022/12/24 11:06:11;;;;;;;11.57;3.23;;;;;;;17.38;47.45;98790.38;7108079;27;20315;-76
2022/12/24 11:09:34;;;;;;;7.87;3.37;;;;;;;17.57;46.57;98786.34;7113214;27;20245;-80
2022/12/24 11:12:55;;;;;;;6.87;2.50;;;;;;;17.38;46.92;98763.97;7089213;27;20209;-77
2022/12/24 11:16:21;;;;;;;7.93;2.60;;;;;;;17.29;46.55;98768.13;7096403;27;20341;-76
2022/12/24 11:19:47;;;;;;;7.60;3.23;;;;;;;17.24;47.52;98767.25;7115086;27;20691;-75
2022/12/24 11:23:14;;;;;;;12.00;2.97;;;;;;;17.62;46.40;98764.56;7117695;27;20210;-78
2022/12/24 11:26:35;;;;;;;9.00;3.13;;;;;;;16.76;47.55;98784.13;7117438;27;20603;-80
2022/12/24 11:30:19;;;;;;;8.63;3.13;;;;;;;17.22;47.38;98750.31;7112725;27;20352;-80
2022/12/24 11:33:48;;;;;;;10.00;3.07;;;;;;;17.40;46.96;98748.16;7119125;27;20274;-79
2022/12/24 11:37:11;;;;;;;6.77;2.90;;;;;;;17.16;48.00;98771.19;7116025;27;20196;-78
2022/12/24 11:40:34;;;;;;;9.77;3.30;;;;;;;17.55;47.03;98775.66;7102288;27;20257;-78
2022/12/24 11:44:02;;;;;;;6.67;3.43;;;;;;;17.42;47.04;98770.56;7105745;27;20228;-78
2022/12/24 11:47:33;;;;;;;8.67;3.20;;;;;;;17.49;47.22;98757.59;7116414;27;20261;-78
2022/12/24 11:51:01;;;;;;;9.23;3.20;;;;;;;17.47;47.33;98764.38;7117020;27;20268;-78
2022/12/24 11:54:26;;;;;;;7.77;3.10;;;;;;;17.29;47.32;98761.88;7117248;27;20267;-78
2022/12/24 11:57:56;;;;;;;10.27;3.43;;;;;;;17.54;47.07;98768.56;7115651;27;20242;-78
2022/12/24 12:01:21;;;;;;;10.80;3.20;;;;;;;17.43;46.83;98768.66;7115411;27;20697;-78
2022/12/24 12:04:44;;;;;;;9.33;3.07;;;;;;;17.33;47.52;98757.59;7115894;27;20300;-78
2022/12/24 12:08:11;;;;;;;7.90;3.47;;;;;;;17.83;46.47;98766.50;7116611;27;20300;-80
2022/12/24 12:11:33;;;;;;;10.17;3.50;;;;;;;17.52;47.82;98762.53;7115814;27;20353;-81
2022/12/24 12:14:58;;;;;;;7.47;3.43;;;;;;;17.05;47.42;98742.13;7116185;27;20750;-80
2022/12/24 12:18:22;;;;;;;8.80;2.90;;;;;;;17.05;47.75;98753.03;7117811;27;20632;-82
2022/12/24 12:21:45;;;;;;;10.47;3.37;;;;;;;17.36;47.52;98757.06;7117954;27;20587;-83
2022/12/24 12:25:17;;;;;;;10.17;2.97;;;;;;;17.33;47.85;98750.22;7116417;27;20247;-80
2022/12/24 12:28:43;;;;;;;9.07;3.00;;;;;;;17.02;47.77;98748.09;7118649;27;20298;-82
2022/12/24 12:32:07;;;;;;;8.43;2.97;;;;;;;17.11;48.08;98724.00;7118195;27;20632;-79
2022/12/24 12:35:31;;;;;;;7.80;3.10;;;;;;;17.03;47.70;98757.91;7117282;27;20311;-78
2022/12/24 12:38:53;;;;;;;7.97;3.27;;;;;;;16.42;49.09;98711.66;7117976;27;20287;-81
2022/12/24 12:42:23;;;;;;;13.40;4.80;;;;;;;17.19;48.93;98757.09;7117500;27;20332;-80
2022/12/24 12:45:49;;;;;;;8.57;3.17;;;;;;;16.79;50.04;98775.47;7115086;27;20275;-77
2022/12/24 12:49:20;;;;;;;8.13;3.40;;;;;;;17.12;49.20;98780.13;7109201;27;20255;-80
2022/12/24 12:53:13;;;;;;;11.13;4.07;;;;;;;17.14;49.35;98775.25;7107279;27;20291;-77
2022/12/24 12:56:35;;;;;;;13.77;4.33;;;;;;;17.02;50.10;98797.13;7086240;27;20185;-78
2022/12/24 13:00:02;;;;;;;13.87;4.77;;;;;;;16.52;50.94;98789.94;7086353;27;20284;-77
2022/12/24 13:03:47;;;;;;;9.93;3.70;;;;;;;16.42;50.77;98781.56;7085978;27;20212;-77
2022/12/24 13:07:52;;;;;;;7.00;3.30;;;;;;;17.03;49.84;98787.03;7098073;27;20232;-80
2022/12/24 13:11:36;;;;;;;10.80;3.73;;;;;;;17.23;49.50;98799.09;7084568;27;20220;-78
2022/12/24 13:15:36;;;;;;;16.00;4.10;;;;;;;17.51;49.29;98785.41;7105510;27;20255;-78
2022/12/24 13:19:07;;;;;;;12.70;5.63;;;;;;;17.78;48.31;98774.63;7102468;27;20327;-80
2022/12/24 13:22:28;;;;;;;11.00;5.30;;;;;;;17.87;48.30;98786.75;7098031;27;20287;-76
2022/12/24 13:25:51;;;;;;;18.57;5.93;;;;;;;18.02;48.71;98779.59;7119215;27;20288;-80
2022/12/24 13:29:41;;;;;;;13.03;4.47;;;;;;;17.89;48.46;98781.88;7120094;27;20237;-79
2022/12/24 13:33:03;;;;;;;12.93;3.97;;;;;;;18.14;48.50;98799.41;7120237;27;20213;-79
2022/12/24 13:37:03;;;;;;;14.43;4.17;;;;;;;18.25;47.62;98778.50;7121496;27;20207;-83
2022/12/24 13:40:25;;;;;;;11.70;4.83;;;;;;;17.99;48.34;98776.56;7120267;27;20685;-77
2022/12/24 13:44:02;;;;;;;20.10;8.70;;;;;;;17.60;49.02;98775.75;7119203;27;20236;-80
2022/12/24 13:47:25;;;;;;;26.37;13.27;;;;;;;17.62;48.76;98780.94;7120047;27;20205;-79
2022/12/24 13:50:48;;;;;;;15.43;8.60;;;;;;;17.87;48.25;98775.84;7119963;27;20220;-79
2022/12/24 13:54:12;;;;;;;13.67;7.50;;;;;;;17.48;49.10;98776.91;7120411;27;20292;-78
2022/12/24 13:57:37;;;;;;;14.33;7.20;;;;;;;17.69;48.71;98793.31;7118473;27;20340;-79
2022/12/24 14:01:00;;;;;;;18.47;6.73;;;;;;;17.57;49.27;98789.88;7119909;27;20259;-80
2022/12/24 14:04:24;;;;;;;12.50;4.80;;;;;;;17.54;48.86;98789.53;7120746;27;20227;-79
2022/12/24 14:07:49;;;;;;;9.13;4.07;;;;;;;17.17;49.66;98767.38;7119342;27;20244;-79
2022/12/24 14:11:13;;;;;;;10.83;4.73;;;;;;;17.34;49.47;98781.84;7120638;27;20218;-78
2022/12/24 14:14:36;;;;;;;7.73;4.33;;;;;;;17.67;48.86;98767.38;7110420;27;20291;-79
2022/12/24 14:17:58;;;;;;;8.33;4.00;;;;;;;17.53;48.82;98736.09;7116084;27;20208;-79
2022/12/24 14:21:22;;;;;;;13.23;3.77;;;;;;;17.75;49.07;98766.97;7122563;27;20303;-79
2022/12/24 14:24:47;;;;;;;12.30;3.77;;;;;;;17.07;51.49;98769.97;7121976;27;20323;-79
2022/12/24 14:28:17;;;;;;;14.60;3.63;;;;;;;17.16;50.82;98757.56;7117787;27;20684;-78
2022/12/24 14:31:50;;;;;;;10.67;3.50;;;;;;;17.24;50.39;98757.19;7119368;27;20215;-79
2022/12/24 14:35:15;;;;;;;12.97;4.93;;;;;;;17.01;51.38;98754.63;7121099;27;20682;-79
2022/12/24 14:38:37;;;;;;;14.80;6.47;;;;;;;16.66;52.53;98764.06;7121049;27;20240;-79
2022/12/24 14:42:07;;;;;;;17.20;8.07;;;;;;;16.24;53.90;98766.22;7120547;27;20339;-79
2022/12/24 14:45:34;;;;;;;26.50;8.27;;;;;;;16.68;53.19;98770.91;7120366;27;20223;-79
2022/12/24 14:48:57;;;;;;;14.40;6.07;;;;;;;16.69;53.22;98772.56;7121774;27;20651;-79
2022/12/24 14:52:23;;;;;;;9.83;5.73;;;;;;;16.63;52.17;98740.06;7120846;27;20244;-79
2022/12/24 14:55:47;;;;;;;12.70;5.50;;;;;;;16.40;54.00;98767.38;7120450;27;20267;-79
2022/12/24 14:59:19;;;;;;;14.17;7.20;;;;;;;16.46;53.63;98780.00;7115874;27;20725;-79
2022/12/24 15:02:46;;;;;;;13.73;6.53;;;;;;;16.29;54.43;98803.59;7092205;27;20215;-79
2022/12/24 15:06:09;;;;;;;16.20;5.67;;;;;;;16.12;54.61;98795.38;7092286;27;20219;-78
2022/12/24 15:09:32;;;;;;;13.60;5.60;;;;;;;15.66;55.86;98810.91;7092377;27;20307;-79
2022/12/24 15:12:56;;;;;;;20.70;6.07;;;;;;;15.29;57.07;98788.53;7093569;27;20679;-79
2022/12/24 15:16:21;;;;;;;14.47;5.60;;;;;;;15.67;56.39;98796.25;7097116;27;20264;-79
2022/12/24 15:19:47;;;;;;;16.20;7.27;;;;;;;15.75;56.32;98788.56;7132711;27;20204;-79
2022/12/24 15:23:18;;;;;;;11.83;5.87;;;;;;;15.46;56.93;98789.53;7132910;27;20220;-79
2022/12/24 15:26:44;;;;;;;17.73;7.37;;;;;;;15.22;57.96;98797.88;7120267;27;20298;-77
2022/12/24 15:30:13;;;;;;;16.83;6.93;;;;;;;15.35;56.91;98778.66;7117331;27;20317;-78
2022/12/24 15:33:36;;;;;;;11.90;6.47;;;;;;;15.56;56.39;98792.47;7117374;27;20277;-78
2022/12/24 15:37:04;;;;;;;15.87;7.07;;;;;;;15.46;56.97;98805.00;7092565;27;20195;-80
2022/12/24 15:40:25;;;;;;;13.90;6.53;;;;;;;15.25;57.16;98802.84;7088170;27;20317;-78
2022/12/24 15:43:49;;;;;;;18.77;6.90;;;;;;;14.53;59.41;98798.53;7088711;27;20210;-80
2022/12/24 15:47:16;;;;;;;12.77;5.80;;;;;;;14.82;58.93;98826.72;7096589;27;20289;-79
2022/12/24 15:50:43;;;;;;;13.33;6.20;;;;;;;14.83;58.70;98837.34;7116597;27;20695;-77
2022/12/24 15:54:11;;;;;;;16.77;6.20;;;;;;;15.06;58.51;98837.41;7115335;27;20262;-78
2022/12/24 15:57:33;;;;;;;15.43;5.83;;;;;;;15.20;57.60;98829.88;7114894;27;20301;-76
2022/12/24 16:01:03;;;;;;;12.97;6.17;;;;;;;15.35;57.27;98835.72;7114109;27;20222;-77
2022/12/24 16:04:26;;;;;;;16.67;8.10;;;;;;;15.23;57.22;98832.13;7116193;27;20266;-78